Bookmark and Share
Track history (hours):
 

Bontekoning

Last reported at 2014-Apr-18 19:15 UTC. Time now 2014-Apr-19 06:56 UTC.
Position N 36°09' W 004°57'.

; draft 2.6 m.

Type: Sailing vessel. MMSI: 244107000.

NotesDate/timePositionNaut miles runAvg speedWind from/ knotsBaromVisibWave heightAir tempDewpointWater temp
2014-Apr-18 19:15N 36°09' W 004°57'7 6.0
2014-Apr-18 18:10N 36°08' W 005°05'5 8.0
2014-Apr-18 17:33N 36°08' W 005°11'8 8.1
2014-Apr-18 16:33N 36°07' W 005°21'3 1.8
2014-Apr-18 15:09N 36°09' W 005°22'0 0.2
2014-Apr-18 12:28N 36°09' W 005°22'0 0.0
2014-Apr-18 11:29N 36°09' W 005°22'0 0.0
2014-Apr-18 10:23N 36°09' W 005°22'0 0.0
2014-Apr-18 06:29N 36°09' W 005°22'0 0.0
2014-Apr-18 05:32N 36°09' W 005°22'0 0.0
2014-Apr-18 04:33N 36°09' W 005°22'0 0.0
2014-Apr-18 03:33N 36°09' W 005°22'0 0.0
2014-Apr-18 02:32N 36°09' W 005°22'0 0.0
2014-Apr-18 01:33N 36°09' W 005°22'0 0.0
2014-Apr-18 00:18N 36°09' W 005°22'0 0.0
2014-Apr-17 23:05N 36°09' W 005°22'0 0.0
2014-Apr-17 22:33N 36°09' W 005°22'0 0.0
2014-Apr-17 21:32N 36°09' W 005°22'1 0.5
2014-Apr-17 20:33N 36°09' W 005°22'6 5.5
2014-Apr-17 19:33N 36°04' W 005°23'9 9.0
2014-Apr-17 18:33N 35°56' W 005°27'8 7.8
2014-Apr-17 17:31N 35°53' W 005°37'5 5.4
2014-Apr-17 16:31N 35°51' W 005°42'7 7.5
2014-Apr-17 15:32N 35°52' W 005°51'  

Dump ship's entire track history

sailing weather and tide predictions

Bontekoning — PH9144 — position and weather